sensor_id;sensor_type;location;lat;lon;timestamp;P1;durP1;ratioP1;P2;durP2;ratioP2
4096;SDS011;2062;50.694;7.246;2023-04-01T00:01:50;4.10;;;0.50;;
4096;SDS011;2062;50.694;7.246;2023-04-01T00:04:17;1.85;;;0.30;;
4096;SDS011;2062;50.694;7.246;2023-04-01T00:06:43;2.60;;;0.30;;
4096;SDS011;2062;50.694;7.246;2023-04-01T00:09:13;3.33;;;0.40;;
4096;SDS011;2062;50.694;7.246;2023-04-01T00:11:41;4.05;;;0.40;;
4096;SDS011;2062;50.694;7.246;2023-04-01T00:14:08;2.83;;;0.30;;
4096;SDS011;2062;50.694;7.246;2023-04-01T00:16:35;2.70;;;0.38;;
4096;SDS011;2062;50.694;7.246;2023-04-01T00:19:02;2.50;;;0.40;;
4096;SDS011;2062;50.694;7.246;2023-04-01T00:21:29;3.17;;;0.30;;
4096;SDS011;2062;50.694;7.246;2023-04-01T00:23:56;2.45;;;0.30;;
4096;SDS011;2062;50.694;7.246;2023-04-01T00:26:25;2.90;;;0.40;;
4096;SDS011;2062;50.694;7.246;2023-04-01T00:28:52;2.28;;;0.40;;
4096;SDS011;2062;50.694;7.246;2023-04-01T00:31:19;2.00;;;0.40;;
4096;SDS011;2062;50.694;7.246;2023-04-01T00:33:46;2.63;;;0.33;;
4096;SDS011;2062;50.694;7.246;2023-04-01T00:36:14;2.97;;;0.45;;
4096;SDS011;2062;50.694;7.246;2023-04-01T00:38:42;3.35;;;0.32;;
4096;SDS011;2062;50.694;7.246;2023-04-01T00:41:10;4.85;;;0.30;;
4096;SDS011;2062;50.694;7.246;2023-04-01T00:43:40;2.00;;;0.30;;
4096;SDS011;2062;50.694;7.246;2023-04-01T00:46:08;2.60;;;0.30;;
4096;SDS011;2062;50.694;7.246;2023-04-01T00:48:35;2.00;;;0.28;;
4096;SDS011;2062;50.694;7.246;2023-04-01T00:51:06;1.23;;;0.20;;
4096;SDS011;2062;50.694;7.246;2023-04-01T00:53:36;3.10;;;0.50;;
4096;SDS011;2062;50.694;7.246;2023-04-01T00:56:06;2.50;;;0.30;;
4096;SDS011;2062;50.694;7.246;2023-04-01T00:58:37;2.13;;;0.30;;
4096;SDS011;2062;50.694;7.246;2023-04-01T01:01:08;3.40;;;0.43;;
4096;SDS011;2062;50.694;7.246;2023-04-01T01:03:36;2.60;;;0.38;;
4096;SDS011;2062;50.694;7.246;2023-04-01T01:06:10;3.28;;;0.40;;
4096;SDS011;2062;50.694;7.246;2023-04-01T01:08:58;1.75;;;0.20;;
4096;SDS011;2062;50.694;7.246;2023-04-01T01:11:35;2.23;;;0.40;;
4096;SDS011;2062;50.694;7.246;2023-04-01T01:14:08;1.70;;;0.28;;
4096;SDS011;2062;50.694;7.246;2023-04-01T01:16:48;1.23;;;0.20;;
4096;SDS011;2062;50.694;7.246;2023-04-01T01:19:26;2.88;;;0.30;;
4096;SDS011;2062;50.694;7.246;2023-04-01T01:22:16;2.53;;;0.40;;
4096;SDS011;2062;50.694;7.246;2023-04-01T01:24:54;2.60;;;0.30;;
4096;SDS011;2062;50.694;7.246;2023-04-01T01:27:37;2.00;;;0.20;;
4096;SDS011;2062;50.694;7.246;2023-04-01T01:30:12;2.97;;;0.32;;
4096;SDS011;2062;50.694;7.246;2023-04-01T01:32:56;2.50;;;0.30;;
4096;SDS011;2062;50.694;7.246;2023-04-01T01:35:34;1.92;;;0.30;;
4096;SDS011;2062;50.694;7.246;2023-04-01T01:38:04;3.73;;;0.40;;
4096;SDS011;2062;50.694;7.246;2023-04-01T01:40:33;1.33;;;0.20;;
4096;SDS011;2062;50.694;7.246;2023-04-01T01:43:03;2.75;;;0.52;;
4096;SDS011;2062;50.694;7.246;2023-04-01T01:45:33;2.70;;;0.40;;
4096;SDS011;2062;50.694;7.246;2023-04-01T01:48:04;1.75;;;0.28;;
4096;SDS011;2062;50.694;7.246;2023-04-01T01:50:34;3.13;;;0.30;;
4096;SDS011;2062;50.694;7.246;2023-04-01T01:53:03;1.92;;;0.28;;
4096;SDS011;2062;50.694;7.246;2023-04-01T01:55:30;1.30;;;0.20;;
4096;SDS011;2062;50.694;7.246;2023-04-01T01:57:59;4.10;;;0.40;;
4096;SDS011;2062;50.694;7.246;2023-04-01T02:00:30;1.73;;;0.30;;
4096;SDS011;2062;50.694;7.246;2023-04-01T02:02:58;1.37;;;0.23;;
4096;SDS011;2062;50.694;7.246;2023-04-01T02:05:26;4.15;;;0.52;;
4096;SDS011;2062;50.694;7.246;2023-04-01T02:07:59;2.10;;;0.40;;
4096;SDS011;2062;50.694;7.246;2023-04-01T02:10:30;2.38;;;0.20;;
4096;SDS011;2062;50.694;7.246;2023-04-01T02:13:01;2.00;;;0.30;;
4096;SDS011;2062;50.694;7.246;2023-04-01T02:15:33;1.60;;;0.30;;
4096;SDS011;2062;50.694;7.246;2023-04-01T02:18:07;2.33;;;0.30;;
4096;SDS011;2062;50.694;7.246;2023-04-01T02:20:35;3.33;;;0.45;;
4096;SDS011;2062;50.694;7.246;2023-04-01T02:23:05;1.85;;;0.30;;
4096;SDS011;2062;50.694;7.246;2023-04-01T02:25:34;3.35;;;0.40;;
4096;SDS011;2062;50.694;7.246;2023-04-01T02:28:04;1.23;;;0.23;;
4096;SDS011;2062;50.694;7.246;2023-04-01T02:30:33;1.08;;;0.20;;
4096;SDS011;2062;50.694;7.246;2023-04-01T02:33:02;2.38;;;0.30;;
4096;SDS011;2062;50.694;7.246;2023-04-01T02:35:29;2.50;;;0.30;;
4096;SDS011;2062;50.694;7.246;2023-04-01T02:37:58;1.30;;;0.30;;
4096;SDS011;2062;50.694;7.246;2023-04-01T02:40:27;2.00;;;0.30;;
4096;SDS011;2062;50.694;7.246;2023-04-01T02:42:54;2.28;;;0.40;;
4096;SDS011;2062;50.694;7.246;2023-04-01T02:45:21;2.85;;;0.40;;
4096;SDS011;2062;50.694;7.246;2023-04-01T02:47:47;2.10;;;0.30;;
4096;SDS011;2062;50.694;7.246;2023-04-01T02:50:14;2.42;;;0.32;;
4096;SDS011;2062;50.694;7.246;2023-04-01T02:52:41;3.83;;;0.33;;
4096;SDS011;2062;50.694;7.246;2023-04-01T02:55:09;1.88;;;0.30;;
4096;SDS011;2062;50.694;7.246;2023-04-01T02:57:37;2.30;;;0.40;;
4096;SDS011;2062;50.694;7.246;2023-04-01T03:00:04;3.13;;;0.30;;
4096;SDS011;2062;50.694;7.246;2023-04-01T03:02:36;2.03;;;0.35;;
4096;SDS011;2062;50.694;7.246;2023-04-01T03:05:04;3.07;;;0.40;;
4096;SDS011;2062;50.694;7.246;2023-04-01T03:07:32;2.78;;;0.25;;
4096;SDS011;2062;50.694;7.246;2023-04-01T03:09:59;2.30;;;0.30;;
4096;SDS011;2062;50.694;7.246;2023-04-01T03:12:26;2.03;;;0.28;;
4096;SDS011;2062;50.694;7.246;2023-04-01T03:14:54;2.20;;;0.25;;
4096;SDS011;2062;50.694;7.246;2023-04-01T03:17:21;2.47;;;0.30;;
4096;SDS011;2062;50.694;7.246;2023-04-01T03:19:48;1.45;;;0.20;;
4096;SDS011;2062;50.694;7.246;2023-04-01T03:22:14;3.40;;;0.40;;
4096;SDS011;2062;50.694;7.246;2023-04-01T03:24:41;1.63;;;0.30;;
4096;SDS011;2062;50.694;7.246;2023-04-01T03:27:08;1.73;;;0.30;;
4096;SDS011;2062;50.694;7.246;2023-04-01T03:29:35;2.77;;;0.30;;
4096;SDS011;2062;50.694;7.246;2023-04-01T03:32:03;2.08;;;0.40;;
4096;SDS011;2062;50.694;7.246;2023-04-01T03:34:44;1.52;;;0.30;;
4096;SDS011;2062;50.694;7.246;2023-04-01T03:37:16;1.98;;;0.30;;
4096;SDS011;2062;50.694;7.246;2023-04-01T03:39:43;2.88;;;0.30;;
4096;SDS011;2062;50.694;7.246;2023-04-01T03:42:11;1.30;;;0.20;;
4096;SDS011;2062;50.694;7.246;2023-04-01T03:44:38;1.88;;;0.30;;
4096;SDS011;2062;50.694;7.246;2023-04-01T03:47:06;1.83;;;0.20;;
4096;SDS011;2062;50.694;7.246;2023-04-01T03:49:34;1.73;;;0.20;;
4096;SDS011;2062;50.694;7.246;2023-04-01T03:52:01;1.92;;;0.30;;
4096;SDS011;2062;50.694;7.246;2023-04-01T03:54:28;0.90;;;0.10;;
4096;SDS011;2062;50.694;7.246;2023-04-01T03:56:55;1.77;;;0.20;;
4096;SDS011;2062;50.694;7.246;2023-04-01T03:59:22;1.88;;;0.30;;
4096;SDS011;2062;50.694;7.246;2023-04-01T04:01:50;2.78;;;0.40;;
4096;SDS011;2062;50.694;7.246;2023-04-01T04:04:18;1.42;;;0.30;;
4096;SDS011;2062;50.694;7.246;2023-04-01T04:06:45;1.80;;;0.20;;
4096;SDS011;2062;50.694;7.246;2023-04-01T04:09:12;2.25;;;0.40;;
4096;SDS011;2062;50.694;7.246;2023-04-01T04:11:38;4.05;;;0.32;;
4096;SDS011;2062;50.694;7.246;2023-04-01T04:14:05;2.10;;;0.30;;
4096;SDS011;2062;50.694;7.246;2023-04-01T04:16:34;1.45;;;0.30;;
4096;SDS011;2062;50.694;7.246;2023-04-01T04:19:01;1.03;;;0.20;;
4096;SDS011;2062;50.694;7.246;2023-04-01T04:21:29;1.27;;;0.20;;
4096;SDS011;2062;50.694;7.246;2023-04-01T04:23:56;1.20;;;0.20;;
4096;SDS011;2062;50.694;7.246;2023-04-01T04:26:24;1.42;;;0.20;;
4096;SDS011;2062;50.694;7.246;2023-04-01T04:28:52;1.27;;;0.20;;
4096;SDS011;2062;50.694;7.246;2023-04-01T04:31:21;2.57;;;0.30;;
4096;SDS011;2062;50.694;7.246;2023-04-01T04:33:49;0.60;;;0.10;;
4096;SDS011;2062;50.694;7.246;2023-04-01T04:36:16;1.40;;;0.20;;
4096;SDS011;2062;50.694;7.246;2023-04-01T04:38:45;0.90;;;0.20;;
4096;SDS011;2062;50.694;7.246;2023-04-01T04:41:12;2.25;;;0.30;;
4096;SDS011;2062;50.694;7.246;2023-04-01T04:43:40;0.87;;;0.20;;
4096;SDS011;2062;50.694;7.246;2023-04-01T04:46:07;1.30;;;0.20;;
4096;SDS011;2062;50.694;7.246;2023-04-01T04:48:35;2.47;;;0.25;;
4096;SDS011;2062;50.694;7.246;2023-04-01T04:51:02;1.77;;;0.25;;
4096;SDS011;2062;50.694;7.246;2023-04-01T04:53:29;0.75;;;0.20;;
4096;SDS011;2062;50.694;7.246;2023-04-01T04:55:57;2.43;;;0.27;;
4096;SDS011;2062;50.694;7.246;2023-04-01T04:58:24;0.93;;;0.13;;
4096;SDS011;2062;50.694;7.246;2023-04-01T05:00:52;0.93;;;0.20;;
4096;SDS011;2062;50.694;7.246;2023-04-01T05:03:19;1.20;;;0.20;;
4096;SDS011;2062;50.694;7.246;2023-04-01T05:05:49;1.30;;;0.20;;
4096;SDS011;2062;50.694;7.246;2023-04-01T05:08:17;0.80;;;0.10;;
4096;SDS011;2062;50.694;7.246;2023-04-01T05:10:44;0.98;;;0.20;;
4096;SDS011;2062;50.694;7.246;2023-04-01T05:13:13;0.77;;;0.20;;
4096;SDS011;2062;50.694;7.246;2023-04-01T05:15:40;2.70;;;0.20;;
4096;SDS011;2062;50.694;7.246;2023-04-01T05:18:07;1.50;;;0.20;;
4096;SDS011;2062;50.694;7.246;2023-04-01T05:20:34;0.80;;;0.10;;
4096;SDS011;2062;50.694;7.246;2023-04-01T05:23:01;0.85;;;0.20;;
4096;SDS011;2062;50.694;7.246;2023-04-01T05:25:27;0.98;;;0.20;;
4096;SDS011;2062;50.694;7.246;2023-04-01T05:27:54;1.55;;;0.20;;
4096;SDS011;2062;50.694;7.246;2023-04-01T05:30:22;1.17;;;0.20;;
4096;SDS011;2062;50.694;7.246;2023-04-01T05:32:49;1.13;;;0.10;;
4096;SDS011;2062;50.694;7.246;2023-04-01T05:35:16;1.10;;;0.20;;
4096;SDS011;2062;50.694;7.246;2023-04-01T05:37:43;0.85;;;0.20;;
4096;SDS011;2062;50.694;7.246;2023-04-01T05:40:10;0.60;;;0.10;;
4096;SDS011;2062;50.694;7.246;2023-04-01T05:42:37;1.63;;;0.30;;
4096;SDS011;2062;50.694;7.246;2023-04-01T05:45:04;2.00;;;0.20;;
4096;SDS011;2062;50.694;7.246;2023-04-01T05:47:33;1.17;;;0.20;;
4096;SDS011;2062;50.694;7.246;2023-04-01T05:50:00;0.75;;;0.20;;
4096;SDS011;2062;50.694;7.246;2023-04-01T05:52:27;0.57;;;0.10;;
4096;SDS011;2062;50.694;7.246;2023-04-01T05:54:54;1.13;;;0.20;;
4096;SDS011;2062;50.694;7.246;2023-04-01T05:57:20;0.73;;;0.10;;
4096;SDS011;2062;50.694;7.246;2023-04-01T05:59:47;1.50;;;0.22;;
4096;SDS011;2062;50.694;7.246;2023-04-01T06:02:15;1.13;;;0.20;;
4096;SDS011;2062;50.694;7.246;2023-04-01T06:04:45;1.00;;;0.10;;
4096;SDS011;2062;50.694;7.246;2023-04-01T06:07:12;2.03;;;0.30;;
4096;SDS011;2062;50.694;7.246;2023-04-01T06:09:40;1.10;;;0.20;;
4096;SDS011;2062;50.694;7.246;2023-04-01T06:12:13;1.05;;;0.20;;
4096;SDS011;2062;50.694;7.246;2023-04-01T06:15:01;1.30;;;0.20;;
4096;SDS011;2062;50.694;7.246;2023-04-01T06:17:42;0.80;;;0.20;;
4096;SDS011;2062;50.694;7.246;2023-04-01T06:20:22;2.05;;;0.20;;
4096;SDS011;2062;50.694;7.246;2023-04-01T06:23:00;0.50;;;0.10;;
4096;SDS011;2062;50.694;7.246;2023-04-01T06:25:50;2.63;;;0.20;;
4096;SDS011;2062;50.694;7.246;2023-04-01T06:28:46;1.02;;;0.20;;
4096;SDS011;2062;50.694;7.246;2023-04-01T06:31:26;0.73;;;0.10;;
4096;SDS011;2062;50.694;7.246;2023-04-01T06:34:20;0.90;;;0.20;;
4096;SDS011;2062;50.694;7.246;2023-04-01T06:37:05;0.50;;;0.10;;
4096;SDS011;2062;50.694;7.246;2023-04-01T06:39:48;1.02;;;0.17;;
4096;SDS011;2062;50.694;7.246;2023-04-01T06:42:26;1.35;;;0.20;;
4096;SDS011;2062;50.694;7.246;2023-04-01T06:45:09;1.23;;;0.20;;
4096;SDS011;2062;50.694;7.246;2023-04-01T06:47:48;1.00;;;0.20;;
4096;SDS011;2062;50.694;7.246;2023-04-01T06:50:26;0.87;;;0.20;;
4096;SDS011;2062;50.694;7.246;2023-04-01T06:53:00;1.83;;;0.20;;
4096;SDS011;2062;50.694;7.246;2023-04-01T06:55:35;1.15;;;0.20;;
4096;SDS011;2062;50.694;7.246;2023-04-01T06:58:10;0.60;;;0.10;;
4096;SDS011;2062;50.694;7.246;2023-04-01T07:00:43;0.98;;;0.10;;
4096;SDS011;2062;50.694;7.246;2023-04-01T07:03:14;1.13;;;0.20;;
4096;SDS011;2062;50.694;7.246;2023-04-01T07:05:46;1.23;;;0.20;;
4096;SDS011;2062;50.694;7.246;2023-04-01T07:08:16;0.82;;;0.20;;
4096;SDS011;2062;50.694;7.246;2023-04-01T07:10:47;1.23;;;0.20;;
4096;SDS011;2062;50.694;7.246;2023-04-01T07:13:18;1.50;;;0.30;;
4096;SDS011;2062;50.694;7.246;2023-04-01T07:15:54;1.47;;;0.20;;
4096;SDS011;2062;50.694;7.246;2023-04-01T07:18:28;1.67;;;0.30;;
4096;SDS011;2062;50.694;7.246;2023-04-01T07:20:57;0.93;;;0.20;;
4096;SDS011;2062;50.694;7.246;2023-04-01T07:23:27;1.55;;;0.20;;
4096;SDS011;2062;50.694;7.246;2023-04-01T07:25:58;1.50;;;0.20;;
4096;SDS011;2062;50.694;7.246;2023-04-01T07:28:29;1.57;;;0.20;;
4096;SDS011;2062;50.694;7.246;2023-04-01T07:31:01;1.40;;;0.28;;
4096;SDS011;2062;50.694;7.246;2023-04-01T07:33:37;1.63;;;0.20;;
4096;SDS011;2062;50.694;7.246;2023-04-01T07:36:08;1.10;;;0.20;;
4096;SDS011;2062;50.694;7.246;2023-04-01T07:38:42;1.20;;;0.20;;
4096;SDS011;2062;50.694;7.246;2023-04-01T07:41:23;0.97;;;0.20;;
4096;SDS011;2062;50.694;7.246;2023-04-01T07:44:01;1.10;;;0.20;;
4096;SDS011;2062;50.694;7.246;2023-04-01T07:46:47;1.23;;;0.20;;
4096;SDS011;2062;50.694;7.246;2023-04-01T07:49:27;1.27;;;0.20;;
4096;SDS011;2062;50.694;7.246;2023-04-01T07:52:04;1.10;;;0.20;;
4096;SDS011;2062;50.694;7.246;2023-04-01T07:54:40;1.60;;;0.30;;
4096;SDS011;2062;50.694;7.246;2023-04-01T07:57:15;1.77;;;0.25;;
4096;SDS011;2062;50.694;7.246;2023-04-01T07:59:49;1.05;;;0.20;;
4096;SDS011;2062;50.694;7.246;2023-04-01T08:02:26;2.78;;;0.30;;
4096;SDS011;2062;50.694;7.246;2023-04-01T08:05:02;2.33;;;0.32;;
4096;SDS011;2062;50.694;7.246;2023-04-01T08:07:37;1.57;;;0.30;;
4096;SDS011;2062;50.694;7.246;2023-04-01T08:10:13;2.05;;;0.30;;
4096;SDS011;2062;50.694;7.246;2023-04-01T08:12:48;1.88;;;0.38;;
4096;SDS011;2062;50.694;7.246;2023-04-01T08:15:26;1.65;;;0.28;;
4096;SDS011;2062;50.694;7.246;2023-04-01T08:18:02;1.65;;;0.30;;
4096;SDS011;2062;50.694;7.246;2023-04-01T08:20:37;2.33;;;0.30;;
4096;SDS011;2062;50.694;7.246;2023-04-01T08:23:11;1.80;;;0.30;;
4096;SDS011;2062;50.694;7.246;2023-04-01T08:25:44;1.27;;;0.30;;
4096;SDS011;2062;50.694;7.246;2023-04-01T08:28:17;2.58;;;0.40;;
4096;SDS011;2062;50.694;7.246;2023-04-01T08:30:48;2.53;;;0.65;;
4096;SDS011;2062;50.694;7.246;2023-04-01T08:33:19;2.03;;;0.23;;
4096;SDS011;2062;50.694;7.246;2023-04-01T08:35:53;1.65;;;0.30;;
4096;SDS011;2062;50.694;7.246;2023-04-01T08:38:26;1.70;;;0.30;;
4096;SDS011;2062;50.694;7.246;2023-04-01T08:41:00;2.00;;;0.40;;
4096;SDS011;2062;50.694;7.246;2023-04-01T08:46:37;2.50;;;0.30;;
4096;SDS011;2062;50.694;7.246;2023-04-01T08:49:27;1.83;;;0.38;;
4096;SDS011;2062;50.694;7.246;2023-04-01T08:52:11;1.45;;;0.30;;
4096;SDS011;2062;50.694;7.246;2023-04-01T08:54:53;1.52;;;0.30;;
4096;SDS011;2062;50.694;7.246;2023-04-01T08:57:35;1.70;;;0.30;;
4096;SDS011;2062;50.694;7.246;2023-04-01T09:00:13;1.77;;;0.30;;
4096;SDS011;2062;50.694;7.246;2023-04-01T09:02:51;1.33;;;0.20;;
4096;SDS011;2062;50.694;7.246;2023-04-01T09:05:39;1.92;;;0.38;;
4096;SDS011;2062;50.694;7.246;2023-04-01T09:08:30;1.30;;;0.30;;
4096;SDS011;2062;50.694;7.246;2023-04-01T09:11:10;1.80;;;0.35;;
4096;SDS011;2062;50.694;7.246;2023-04-01T09:13:51;2.37;;;0.43;;
4096;SDS011;2062;50.694;7.246;2023-04-01T09:16:58;1.90;;;0.32;;
4096;SDS011;2062;50.694;7.246;2023-04-01T09:19:47;2.20;;;0.50;;
4096;SDS011;2062;50.694;7.246;2023-04-01T09:22:33;2.75;;;0.38;;
4096;SDS011;2062;50.694;7.246;2023-04-01T09:25:14;2.45;;;0.52;;
4096;SDS011;2062;50.694;7.246;2023-04-01T09:27:54;2.83;;;0.40;;
4096;SDS011;2062;50.694;7.246;2023-04-01T09:33:43;2.15;;;0.40;;
4096;SDS011;2062;50.694;7.246;2023-04-01T09:39:25;2.10;;;0.50;;
4096;SDS011;2062;50.694;7.246;2023-04-01T09:42:09;2.27;;;0.50;;
4096;SDS011;2062;50.694;7.246;2023-04-01T09:44:51;2.65;;;0.50;;
4096;SDS011;2062;50.694;7.246;2023-04-01T09:47:30;2.25;;;0.40;;
4096;SDS011;2062;50.694;7.246;2023-04-01T09:50:29;2.47;;;0.40;;
4096;SDS011;2062;50.694;7.246;2023-04-01T09:53:08;4.82;;;1.20;;
4096;SDS011;2062;50.694;7.246;2023-04-01T10:01:43;3.17;;;0.70;;
4096;SDS011;2062;50.694;7.246;2023-04-01T10:04:35;2.20;;;0.50;;
4096;SDS011;2062;50.694;7.246;2023-04-01T10:07:30;2.80;;;0.50;;
4096;SDS011;2062;50.694;7.246;2023-04-01T10:13:41;1.90;;;0.35;;
4096;SDS011;2062;50.694;7.246;2023-04-01T10:16:50;2.03;;;0.40;;
4096;SDS011;2062;50.694;7.246;2023-04-01T10:20:02;1.60;;;0.30;;
4096;SDS011;2062;50.694;7.246;2023-04-01T10:22:57;2.05;;;0.40;;
4096;SDS011;2062;50.694;7.246;2023-04-01T10:25:57;1.77;;;0.30;;
4096;SDS011;2062;50.694;7.246;2023-04-01T10:32:13;1.60;;;0.30;;
4096;SDS011;2062;50.694;7.246;2023-04-01T10:35:05;1.58;;;0.30;;
4096;SDS011;2062;50.694;7.246;2023-04-01T10:37:55;1.67;;;0.30;;
4096;SDS011;2062;50.694;7.246;2023-04-01T10:40:53;1.80;;;0.37;;
4096;SDS011;2062;50.694;7.246;2023-04-01T10:43:44;1.52;;;0.30;;
4096;SDS011;2062;50.694;7.246;2023-04-01T10:46:53;1.45;;;0.30;;
4096;SDS011;2062;50.694;7.246;2023-04-01T10:50:11;1.65;;;0.30;;
4096;SDS011;2062;50.694;7.246;2023-04-01T10:56:15;1.77;;;0.30;;
4096;SDS011;2062;50.694;7.246;2023-04-01T11:02:35;2.20;;;0.40;;
4096;SDS011;2062;50.694;7.246;2023-04-01T11:26:51;3.50;;;0.60;;
4096;SDS011;2062;50.694;7.246;2023-04-01T11:29:36;2.63;;;0.57;;
4096;SDS011;2062;50.694;7.246;2023-04-01T11:32:13;2.67;;;0.50;;
4096;SDS011;2062;50.694;7.246;2023-04-01T11:34:54;1.67;;;0.30;;
4096;SDS011;2062;50.694;7.246;2023-04-01T11:37:29;2.28;;;0.47;;
4096;SDS011;2062;50.694;7.246;2023-04-01T11:40:09;3.17;;;0.50;;
4096;SDS011;2062;50.694;7.246;2023-04-01T11:42:51;2.25;;;0.50;;
4096;SDS011;2062;50.694;7.246;2023-04-01T11:45:26;3.15;;;0.47;;
4096;SDS011;2062;50.694;7.246;2023-04-01T11:48:11;2.30;;;0.40;;
4096;SDS011;2062;50.694;7.246;2023-04-01T11:50:57;2.40;;;0.50;;
4096;SDS011;2062;50.694;7.246;2023-04-01T11:53:41;2.30;;;0.50;;
4096;SDS011;2062;50.694;7.246;2023-04-01T11:56:16;2.22;;;0.50;;
4096;SDS011;2062;50.694;7.246;2023-04-01T12:01:59;2.67;;;0.60;;
4096;SDS011;2062;50.694;7.246;2023-04-01T12:04:36;2.35;;;0.50;;
4096;SDS011;2062;50.694;7.246;2023-04-01T12:07:27;2.10;;;0.40;;
4096;SDS011;2062;50.694;7.246;2023-04-01T12:10:12;1.88;;;0.40;;
4096;SDS011;2062;50.694;7.246;2023-04-01T12:12:54;2.90;;;0.40;;
4096;SDS011;2062;50.694;7.246;2023-04-01T12:15:42;2.28;;;0.45;;
4096;SDS011;2062;50.694;7.246;2023-04-01T12:18:20;3.15;;;0.60;;
4096;SDS011;2062;50.694;7.246;2023-04-01T12:20:53;2.60;;;0.60;;
4096;SDS011;2062;50.694;7.246;2023-04-01T12:23:37;3.00;;;0.60;;
4096;SDS011;2062;50.694;7.246;2023-04-01T12:26:19;3.30;;;0.77;;
4096;SDS011;2062;50.694;7.246;2023-04-01T12:32:03;4.57;;;0.90;;
4096;SDS011;2062;50.694;7.246;2023-04-01T12:37:39;3.20;;;0.70;;
4096;SDS011;2062;50.694;7.246;2023-04-01T12:43:29;3.20;;;0.63;;
4096;SDS011;2062;50.694;7.246;2023-04-01T12:46:22;2.78;;;0.63;;
4096;SDS011;2062;50.694;7.246;2023-04-01T12:49:01;3.20;;;0.60;;
4096;SDS011;2062;50.694;7.246;2023-04-01T12:51:52;2.80;;;0.50;;
4096;SDS011;2062;50.694;7.246;2023-04-01T12:54:55;3.65;;;0.70;;
4096;SDS011;2062;50.694;7.246;2023-04-01T12:57:38;3.63;;;0.60;;
4096;SDS011;2062;50.694;7.246;2023-04-01T13:00:39;2.50;;;0.50;;
4096;SDS011;2062;50.694;7.246;2023-04-01T13:03:25;2.20;;;0.40;;
4096;SDS011;2062;50.694;7.246;2023-04-01T13:09:13;2.28;;;0.50;;
4096;SDS011;2062;50.694;7.246;2023-04-01T13:12:00;2.17;;;0.40;;
4096;SDS011;2062;50.694;7.246;2023-04-01T13:14:50;2.03;;;0.43;;
4096;SDS011;2062;50.694;7.246;2023-04-01T13:17:32;2.40;;;0.50;;
4096;SDS011;2062;50.694;7.246;2023-04-01T13:20:06;3.40;;;0.50;;
4096;SDS011;2062;50.694;7.246;2023-04-01T13:22:48;2.63;;;0.60;;
4096;SDS011;2062;50.694;7.246;2023-04-01T13:25:27;3.67;;;0.70;;
4096;SDS011;2062;50.694;7.246;2023-04-01T13:28:04;2.95;;;0.80;;
4096;SDS011;2062;50.694;7.246;2023-04-01T13:30:38;3.73;;;0.73;;
4096;SDS011;2062;50.694;7.246;2023-04-01T13:33:13;2.70;;;0.68;;
4096;SDS011;2062;50.694;7.246;2023-04-01T13:35:53;3.50;;;0.82;;
4096;SDS011;2062;50.694;7.246;2023-04-01T13:38:41;4.95;;;0.90;;
4096;SDS011;2062;50.694;7.246;2023-04-01T13:41:26;4.05;;;0.80;;
4096;SDS011;2062;50.694;7.246;2023-04-01T13:44:06;2.87;;;0.60;;
4096;SDS011;2062;50.694;7.246;2023-04-01T13:46:45;3.25;;;0.70;;
4096;SDS011;2062;50.694;7.246;2023-04-01T13:49:32;3.58;;;0.55;;
4096;SDS011;2062;50.694;7.246;2023-04-01T13:52:30;2.42;;;0.50;;
4096;SDS011;2062;50.694;7.246;2023-04-01T13:58:20;2.70;;;0.50;;
4096;SDS011;2062;50.694;7.246;2023-04-01T14:01:16;2.58;;;0.50;;
4096;SDS011;2062;50.694;7.246;2023-04-01T14:03:53;2.30;;;0.40;;
4096;SDS011;2062;50.694;7.246;2023-04-01T14:06:49;2.70;;;0.50;;
4096;SDS011;2062;50.694;7.246;2023-04-01T14:09:45;2.97;;;0.60;;
4096;SDS011;2062;50.694;7.246;2023-04-01T14:12:27;2.60;;;0.50;;
4096;SDS011;2062;50.694;7.246;2023-04-01T14:15:03;2.10;;;0.47;;
4096;SDS011;2062;50.694;7.246;2023-04-01T14:17:50;2.58;;;0.55;;
4096;SDS011;2062;50.694;7.246;2023-04-01T14:20:29;2.90;;;0.60;;
4096;SDS011;2062;50.694;7.246;2023-04-01T14:26:19;2.67;;;0.60;;
4096;SDS011;2062;50.694;7.246;2023-04-01T14:29:01;3.38;;;0.65;;
4096;SDS011;2062;50.694;7.246;2023-04-01T14:31:39;2.80;;;0.60;;
4096;SDS011;2062;50.694;7.246;2023-04-01T14:34:20;3.13;;;0.70;;
4096;SDS011;2062;50.694;7.246;2023-04-01T14:36:56;2.85;;;0.75;;
4096;SDS011;2062;50.694;7.246;2023-04-01T14:40:02;2.77;;;0.60;;
4096;SDS011;2062;50.694;7.246;2023-04-01T14:42:55;2.58;;;0.60;;
4096;SDS011;2062;50.694;7.246;2023-04-01T14:48:36;2.95;;;0.70;;
4096;SDS011;2062;50.694;7.246;2023-04-01T14:51:09;2.90;;;0.80;;
4096;SDS011;2062;50.694;7.246;2023-04-01T14:53:43;3.20;;;0.83;;
4096;SDS011;2062;50.694;7.246;2023-04-01T14:59:25;4.10;;;0.98;;
4096;SDS011;2062;50.694;7.246;2023-04-01T15:01:57;2.85;;;0.80;;
4096;SDS011;2062;50.694;7.246;2023-04-01T15:04:37;3.42;;;0.73;;
4096;SDS011;2062;50.694;7.246;2023-04-01T15:10:17;4.18;;;0.75;;
4096;SDS011;2062;50.694;7.246;2023-04-01T15:12:58;2.40;;;0.60;;
4096;SDS011;2062;50.694;7.246;2023-04-01T15:15:39;2.80;;;0.70;;
4096;SDS011;2062;50.694;7.246;2023-04-01T15:18:30;3.20;;;0.70;;
4096;SDS011;2062;50.694;7.246;2023-04-01T15:21:11;3.10;;;0.77;;
4096;SDS011;2062;50.694;7.246;2023-04-01T15:23:54;2.88;;;0.70;;
4096;SDS011;2062;50.694;7.246;2023-04-01T15:26:29;2.58;;;0.60;;
4096;SDS011;2062;50.694;7.246;2023-04-01T15:29:33;2.42;;;0.50;;
4096;SDS011;2062;50.694;7.246;2023-04-01T15:32:19;3.00;;;0.63;;
4096;SDS011;2062;50.694;7.246;2023-04-01T15:34:57;2.80;;;0.57;;
4096;SDS011;2062;50.694;7.246;2023-04-01T15:37:37;2.50;;;0.50;;
4096;SDS011;2062;50.694;7.246;2023-04-01T15:40:16;2.97;;;0.60;;
4096;SDS011;2062;50.694;7.246;2023-04-01T15:42:52;4.22;;;0.60;;
4096;SDS011;2062;50.694;7.246;2023-04-01T15:45:31;3.00;;;0.60;;
4096;SDS011;2062;50.694;7.246;2023-04-01T15:48:06;3.23;;;0.50;;
4096;SDS011;2062;50.694;7.246;2023-04-01T15:53:50;3.15;;;0.70;;
4096;SDS011;2062;50.694;7.246;2023-04-01T15:56:36;2.58;;;0.50;;
4096;SDS011;2062;50.694;7.246;2023-04-01T15:59:15;3.58;;;0.60;;
4096;SDS011;2062;50.694;7.246;2023-04-01T16:01:54;2.70;;;0.60;;
4096;SDS011;2062;50.694;7.246;2023-04-01T16:04:38;3.85;;;0.50;;
4096;SDS011;2062;50.694;7.246;2023-04-01T16:07:23;2.28;;;0.40;;
4096;SDS011;2062;50.694;7.246;2023-04-01T16:10:21;2.35;;;0.50;;
4096;SDS011;2062;50.694;7.246;2023-04-01T16:13:02;2.80;;;0.60;;
4096;SDS011;2062;50.694;7.246;2023-04-01T16:15:42;3.27;;;0.60;;
4096;SDS011;2062;50.694;7.246;2023-04-01T16:18:21;2.47;;;0.50;;
4096;SDS011;2062;50.694;7.246;2023-04-01T16:21:00;2.63;;;0.50;;
4096;SDS011;2062;50.694;7.246;2023-04-01T16:23:35;2.25;;;0.47;;
4096;SDS011;2062;50.694;7.246;2023-04-01T16:26:07;2.33;;;0.47;;
4096;SDS011;2062;50.694;7.246;2023-04-01T16:28:40;2.23;;;0.40;;
4096;SDS011;2062;50.694;7.246;2023-04-01T16:31:15;2.53;;;0.45;;
4096;SDS011;2062;50.694;7.246;2023-04-01T16:33:58;2.80;;;0.60;;
4096;SDS011;2062;50.694;7.246;2023-04-01T16:36:33;2.35;;;0.50;;
4096;SDS011;2062;50.694;7.246;2023-04-01T16:39:15;2.60;;;0.50;;
4096;SDS011;2062;50.694;7.246;2023-04-01T16:41:57;2.63;;;0.50;;
4096;SDS011;2062;50.694;7.246;2023-04-01T16:44:49;3.33;;;0.50;;
4096;SDS011;2062;50.694;7.246;2023-04-01T16:47:20;2.50;;;0.52;;
4096;SDS011;2062;50.694;7.246;2023-04-01T16:49:54;2.50;;;0.50;;
4096;SDS011;2062;50.694;7.246;2023-04-01T16:52:36;3.10;;;0.70;;
4096;SDS011;2062;50.694;7.246;2023-04-01T16:55:17;3.10;;;0.73;;
4096;SDS011;2062;50.694;7.246;2023-04-01T16:57:46;2.70;;;0.60;;
4096;SDS011;2062;50.694;7.246;2023-04-01T17:00:19;3.38;;;0.70;;
4096;SDS011;2062;50.694;7.246;2023-04-01T17:02:52;2.33;;;0.60;;
4096;SDS011;2062;50.694;7.246;2023-04-01T17:08:22;2.90;;;0.60;;
4096;SDS011;2062;50.694;7.246;2023-04-01T17:11:07;3.00;;;0.63;;
4096;SDS011;2062;50.694;7.246;2023-04-01T17:13:40;3.03;;;0.52;;
4096;SDS011;2062;50.694;7.246;2023-04-01T17:16:26;3.10;;;0.70;;
4096;SDS011;2062;50.694;7.246;2023-04-01T17:19:14;3.15;;;0.77;;
4096;SDS011;2062;50.694;7.246;2023-04-01T17:21:56;3.13;;;0.73;;
4096;SDS011;2062;50.694;7.246;2023-04-01T17:24:37;2.75;;;0.52;;
4096;SDS011;2062;50.694;7.246;2023-04-01T17:27:20;3.22;;;0.80;;
4096;SDS011;2062;50.694;7.246;2023-04-01T17:29:57;3.58;;;0.90;;
4096;SDS011;2062;50.694;7.246;2023-04-01T17:32:35;3.00;;;0.90;;
4096;SDS011;2062;50.694;7.246;2023-04-01T17:35:11;3.30;;;0.80;;
4096;SDS011;2062;50.694;7.246;2023-04-01T17:37:45;3.05;;;0.75;;
4096;SDS011;2062;50.694;7.246;2023-04-01T17:43:20;2.80;;;0.80;;